createdAt,value
2017-10-11T00:01:25.929Z,2.30
2017-10-11T00:03:53.359Z,2.40
2017-10-11T00:06:20.820Z,1.90
2017-10-11T00:08:49.093Z,3.00
2017-10-11T00:11:16.983Z,4.50
2017-10-11T00:13:44.758Z,6.57
2017-10-11T00:16:12.166Z,9.37
2017-10-11T00:18:39.583Z,8.37
2017-10-11T00:21:07.076Z,9.43
2017-10-11T00:23:34.498Z,11.47
2017-10-11T00:26:01.960Z,6.87
2017-10-11T00:28:29.425Z,12.53
2017-10-11T00:30:56.832Z,5.37
2017-10-11T00:33:24.331Z,5.97
2017-10-11T00:35:51.795Z,5.83
2017-10-11T00:38:19.218Z,6.60
2017-10-11T00:40:46.628Z,5.80
2017-10-11T00:43:14.067Z,4.20
2017-10-11T00:45:41.480Z,6.73
2017-10-11T00:48:08.905Z,5.03
2017-10-11T00:50:36.365Z,5.13
2017-10-11T00:53:03.791Z,3.50
2017-10-11T00:55:31.225Z,7.43
2017-10-11T00:57:59.044Z,3.40
2017-10-11T01:00:26.456Z,6.20
2017-10-11T01:02:53.872Z,4.73
2017-10-11T01:05:21.688Z,7.20
2017-10-11T01:07:49.095Z,4.80
2017-10-11T01:10:16.502Z,5.87
2017-10-11T01:12:43.978Z,5.80
2017-10-11T01:15:11.495Z,5.53
2017-10-11T01:17:38.908Z,6.93
2017-10-11T01:20:06.789Z,8.63
2017-10-11T01:22:34.202Z,5.47
2017-10-11T01:25:01.620Z,3.10
2017-10-11T01:27:29.083Z,3.40
2017-10-11T01:29:56.501Z,6.07
2017-10-11T01:32:23.912Z,3.60
2017-10-11T01:34:51.749Z,4.30
2017-10-11T01:37:19.153Z,4.53
2017-10-11T01:39:46.602Z,4.17
2017-10-11T01:42:14.307Z,5.27
2017-10-11T01:44:41.721Z,4.13
2017-10-11T01:47:09.122Z,2.70
2017-10-11T01:49:37.059Z,3.43
2017-10-11T01:52:04.480Z,5.50
2017-10-11T01:54:31.888Z,3.40
2017-10-11T01:56:59.882Z,2.30
2017-10-11T01:59:27.282Z,3.90
2017-10-11T02:01:54.701Z,4.70
2017-10-11T02:04:22.862Z,4.10
2017-10-11T02:06:50.280Z,4.70
2017-10-11T02:09:17.715Z,3.10
2017-10-11T02:11:45.544Z,5.70
2017-10-11T02:14:12.964Z,4.90
2017-10-11T02:16:40.990Z,3.60
2017-10-11T02:19:08.840Z,3.72
2017-10-11T02:21:36.257Z,2.93
2017-10-11T02:24:03.710Z,4.50
2017-10-11T02:26:31.154Z,2.55
2017-10-11T02:28:58.574Z,4.50
2017-10-11T02:31:25.981Z,2.77
2017-10-11T02:33:53.677Z,2.10
2017-10-11T02:36:21.096Z,2.60
2017-10-11T02:38:48.515Z,2.60
2017-10-11T02:41:15.983Z,3.63
2017-10-11T02:43:43.390Z,2.73
2017-10-11T02:46:10.795Z,1.90
2017-10-11T02:48:38.418Z,3.17
2017-10-11T02:51:05.826Z,2.00
2017-10-11T02:53:33.240Z,2.63
2017-10-11T02:56:00.784Z,3.20
2017-10-11T02:58:28.189Z,2.30
2017-10-11T03:00:55.618Z,2.83
2017-10-11T03:03:23.051Z,3.93
2017-10-11T03:05:50.457Z,2.37
2017-10-11T03:08:17.880Z,2.87
2017-10-11T03:10:45.363Z,2.30
2017-10-11T03:13:12.770Z,2.47
2017-10-11T03:15:40.198Z,2.70
2017-10-11T03:18:08.472Z,2.83
2017-10-11T03:20:35.889Z,2.17
2017-10-11T03:23:03.296Z,2.07
2017-10-11T03:25:31.079Z,2.67
2017-10-11T03:27:59.467Z,2.20
2017-10-11T03:30:26.926Z,2.90
2017-10-11T03:32:54.363Z,2.33
2017-10-11T03:35:21.775Z,2.07
2017-10-11T03:37:49.285Z,2.90
2017-10-11T03:40:16.822Z,3.50
2017-10-11T03:42:44.222Z,2.20
2017-10-11T03:45:11.632Z,1.73
2017-10-11T03:47:39.434Z,3.10
2017-10-11T03:50:06.894Z,2.63
2017-10-11T03:52:34.291Z,2.10
2017-10-11T03:55:01.739Z,2.27
2017-10-11T03:57:29.160Z,3.80
2017-10-11T03:59:56.564Z,2.23
2017-10-11T04:02:24.023Z,2.10
2017-10-11T04:04:51.474Z,2.40
2017-10-11T04:07:18.889Z,2.57
2017-10-11T04:09:46.330Z,1.60
2017-10-11T04:12:13.738Z,1.43
2017-10-11T04:14:41.165Z,2.37
2017-10-11T04:17:08.607Z,3.10
2017-10-11T04:19:36.067Z,2.23
2017-10-11T04:22:03.471Z,3.00
2017-10-11T04:24:30.964Z,3.22
2017-10-11T04:26:58.434Z,3.90
2017-10-11T04:29:25.879Z,6.33
2017-10-11T04:31:53.402Z,2.97
2017-10-11T04:34:20.812Z,4.87
2017-10-11T04:36:48.219Z,6.97
2017-10-11T04:39:15.697Z,3.73
2017-10-11T04:41:43.100Z,1.67
2017-10-11T04:44:10.514Z,4.70
2017-10-11T04:46:38.007Z,2.20
2017-10-11T04:49:05.422Z,2.40
2017-10-11T04:51:32.839Z,3.12
2017-10-11T04:54:00.297Z,3.03
2017-10-11T04:56:27.718Z,6.60
2017-10-11T04:58:55.160Z,3.53
2017-10-11T05:01:23.042Z,7.30
2017-10-11T05:03:50.456Z,3.92
2017-10-11T05:06:17.878Z,3.97
2017-10-11T05:08:45.417Z,2.00
2017-10-11T05:11:12.825Z,7.70
2017-10-11T05:13:40.242Z,2.20
2017-10-11T05:16:07.681Z,3.00
2017-10-11T05:18:35.092Z,2.27
2017-10-11T05:21:02.511Z,3.90
2017-10-11T05:23:30.010Z,5.07
2017-10-11T05:25:57.415Z,3.10
2017-10-11T05:28:24.834Z,4.70
2017-10-11T05:30:52.283Z,3.53
2017-10-11T05:33:19.719Z,3.00
2017-10-11T05:35:47.143Z,2.00
2017-10-11T05:38:14.646Z,2.33
2017-10-11T05:40:42.053Z,4.60
2017-10-11T05:43:09.529Z,2.57
2017-10-11T05:45:37.000Z,5.23
2017-10-11T05:48:05.033Z,2.22
2017-10-11T05:50:32.449Z,2.30
2017-10-11T05:53:00.234Z,1.60
2017-10-11T05:55:27.706Z,2.27
2017-10-11T05:57:55.176Z,2.80
2017-10-11T06:00:22.696Z,5.87
2017-10-11T06:02:50.115Z,5.83
2017-10-11T06:05:17.540Z,4.20
2017-10-11T06:07:45.095Z,12.33
2017-10-11T06:10:12.502Z,4.33
2017-10-11T06:12:39.908Z,3.87
2017-10-11T06:15:07.579Z,6.93
2017-10-11T06:17:35.127Z,4.23
2017-10-11T06:20:02.541Z,4.67
2017-10-11T06:22:30.030Z,4.77
2017-10-11T06:24:57.435Z,5.03
2017-10-11T06:27:25.035Z,4.87
2017-10-11T06:29:52.497Z,5.35
2017-10-11T06:32:19.917Z,6.03
2017-10-11T06:34:47.345Z,4.70
2017-10-11T06:37:14.808Z,7.67
2017-10-11T06:39:42.512Z,4.20
2017-10-11T06:42:09.921Z,19.50
2017-10-11T06:44:37.831Z,1.93
2017-10-11T06:47:05.296Z,4.10
2017-10-11T06:49:32.790Z,5.73
2017-10-11T06:52:00.266Z,3.93
2017-10-11T06:54:27.680Z,4.63
2017-10-11T06:56:55.114Z,6.20
2017-10-11T06:59:22.893Z,1.60
2017-10-11T07:01:50.320Z,2.13
2017-10-11T07:04:17.726Z,6.12
2017-10-11T07:06:45.565Z,5.63
2017-10-11T07:09:12.984Z,3.87
2017-10-11T07:11:40.433Z,3.10
2017-10-11T07:14:08.241Z,3.43
2017-10-11T07:16:35.652Z,2.60
2017-10-11T07:19:03.092Z,1.93
2017-10-11T07:21:30.545Z,5.30
2017-10-11T07:23:58.038Z,2.20
2017-10-11T07:26:25.446Z,4.20
2017-10-11T07:28:52.914Z,3.30
2017-10-11T07:31:20.325Z,4.00
2017-10-11T07:33:47.788Z,4.50
2017-10-11T07:36:15.553Z,1.50
2017-10-11T07:38:42.973Z,6.62
2017-10-11T07:41:10.381Z,2.13
2017-10-11T07:43:37.832Z,7.20
2017-10-11T07:46:05.724Z,3.10
2017-10-11T07:48:33.144Z,1.87
2017-10-11T07:51:00.715Z,3.97
2017-10-11T07:53:28.203Z,2.27
2017-10-11T07:55:55.608Z,1.97
2017-10-11T07:58:23.196Z,2.50
2017-10-11T08:00:50.638Z,3.77
2017-10-11T08:03:18.047Z,2.23
2017-10-11T08:05:45.567Z,2.20
2017-10-11T08:08:12.977Z,1.60
2017-10-11T08:10:40.407Z,2.80
2017-10-11T08:13:08.238Z,2.85
2017-10-11T08:15:35.754Z,2.77
2017-10-11T08:18:03.185Z,2.90
2017-10-11T08:20:31.124Z,7.07
2017-10-11T08:22:58.536Z,2.15
2017-10-11T08:25:25.949Z,2.10
2017-10-11T08:27:53.424Z,20.33
2017-10-11T08:30:20.939Z,7.20
2017-10-11T08:32:48.495Z,4.10
2017-10-11T08:35:16.030Z,7.73
2017-10-11T08:37:43.465Z,6.73
2017-10-11T08:40:10.936Z,3.30
2017-10-11T08:42:38.843Z,4.68
2017-10-11T08:45:06.246Z,7.43
2017-10-11T08:47:33.668Z,4.40
2017-10-11T08:50:01.118Z,3.30
2017-10-11T08:52:28.564Z,6.83
2017-10-11T08:54:55.981Z,5.43
2017-10-11T08:57:23.429Z,7.40
2017-10-11T08:59:50.853Z,4.40
2017-10-11T09:02:18.260Z,7.10
2017-10-11T09:04:45.717Z,10.73
2017-10-11T09:07:13.393Z,14.53
2017-10-11T09:09:40.801Z,8.23
2017-10-11T09:12:08.693Z,3.93
2017-10-11T09:14:36.127Z,6.40
2017-10-11T09:17:03.566Z,1.90
2017-10-11T09:19:31.075Z,4.30
2017-10-11T09:21:58.487Z,9.03
2017-10-11T09:24:26.193Z,7.70
2017-10-11T09:26:53.684Z,7.03
2017-10-11T09:29:21.119Z,4.03
2017-10-11T09:31:48.725Z,4.13
2017-10-11T09:34:16.228Z,5.97
2017-10-11T09:36:43.648Z,6.57
2017-10-11T09:39:11.064Z,7.13
2017-10-11T09:41:39.019Z,9.80
2017-10-11T09:44:06.449Z,15.40
2017-10-11T09:46:33.914Z,6.60
2017-10-11T09:49:01.812Z,4.47
2017-10-11T09:51:29.237Z,5.63
2017-10-11T09:53:56.656Z,6.60
2017-10-11T09:56:24.486Z,4.50
2017-10-11T09:58:52.679Z,6.17
2017-10-11T10:01:20.087Z,4.33
2017-10-11T10:03:48.492Z,3.70
2017-10-11T10:06:15.899Z,5.90
2017-10-11T10:08:43.433Z,4.00
2017-10-11T10:11:11.057Z,4.70
2017-10-11T10:13:38.506Z,5.17
2017-10-11T10:16:05.969Z,4.87
2017-10-11T10:18:33.588Z,6.37
2017-10-11T10:21:01.189Z,3.20
2017-10-11T10:23:28.794Z,2.07
2017-10-11T10:25:56.240Z,3.60
2017-10-11T10:28:23.717Z,5.90
2017-10-11T10:30:51.263Z,4.90
2017-10-11T10:33:19.106Z,6.40
2017-10-11T10:35:46.544Z,3.97
2017-10-11T10:38:14.010Z,5.00
2017-10-11T10:40:41.501Z,8.50
2017-10-11T10:43:08.928Z,2.37
2017-10-11T10:45:36.340Z,3.20
2017-10-11T10:48:04.153Z,5.10
2017-10-11T10:50:31.566Z,8.50
2017-10-11T10:52:58.980Z,5.43
2017-10-11T10:55:26.832Z,6.63
2017-10-11T10:57:54.266Z,8.87
2017-10-11T11:00:21.703Z,22.52
2017-10-11T11:02:49.678Z,16.47
2017-10-11T11:05:17.112Z,20.33
2017-10-11T11:07:44.543Z,27.57
2017-10-11T11:10:12.067Z,33.53
2017-10-11T11:12:39.489Z,38.27
2017-10-11T11:15:06.912Z,48.57
2017-10-11T11:17:34.751Z,34.90
2017-10-11T11:20:02.195Z,40.00
2017-10-11T11:22:29.859Z,62.50
2017-10-11T11:24:58.544Z,56.10
2017-10-11T11:27:26.051Z,47.40
2017-10-11T11:29:53.469Z,47.57
2017-10-11T11:32:20.921Z,42.50
2017-10-11T11:34:48.346Z,41.57
2017-10-11T11:37:15.779Z,47.73
2017-10-11T11:39:43.249Z,43.20
2017-10-11T11:42:10.666Z,40.53
2017-10-11T11:44:38.110Z,37.73
2017-10-11T11:47:05.645Z,40.70
2017-10-11T11:49:33.070Z,35.13
2017-10-11T11:52:00.491Z,29.77
2017-10-11T11:54:28.352Z,38.63
2017-10-11T11:56:55.781Z,29.10
2017-10-11T11:59:23.194Z,31.60
2017-10-11T12:01:51.040Z,30.20
2017-10-11T12:04:18.467Z,23.27
2017-10-11T12:06:45.880Z,21.83
2017-10-11T12:09:13.349Z,19.43
2017-10-11T12:11:40.778Z,26.30
2017-10-11T12:14:08.268Z,26.93
2017-10-11T12:16:35.786Z,20.80
2017-10-11T12:19:03.207Z,20.53
2017-10-11T12:21:30.699Z,20.20
2017-10-11T12:23:59.115Z,18.60
2017-10-11T12:26:26.530Z,17.00
2017-10-11T12:28:53.958Z,18.83
2017-10-11T12:31:21.850Z,24.50
2017-10-11T12:33:49.385Z,21.10
2017-10-11T12:36:16.798Z,16.10
2017-10-11T12:38:44.271Z,13.63
2017-10-11T12:41:11.697Z,24.10
2017-10-11T12:43:39.125Z,18.60
2017-10-11T12:46:06.740Z,17.33
2017-10-11T12:48:34.164Z,18.70
2017-10-11T12:51:01.585Z,18.60
2017-10-11T12:53:29.455Z,12.83
2017-10-11T12:55:56.875Z,16.23
2017-10-11T12:58:24.288Z,15.70
2017-10-11T13:00:51.762Z,12.87
2017-10-11T13:03:19.272Z,13.30
2017-10-11T13:05:46.817Z,13.00
2017-10-11T13:08:14.617Z,9.73
2017-10-11T13:10:42.178Z,11.57
2017-10-11T13:13:09.637Z,11.10
2017-10-11T13:15:38.102Z,14.00
2017-10-11T13:18:05.526Z,18.00
2017-10-11T13:20:32.955Z,16.07
2017-10-11T13:23:00.444Z,18.10
2017-10-11T13:25:27.975Z,8.30
2017-10-11T13:27:55.385Z,11.75
2017-10-11T13:33:16.155Z,10.07
2017-10-11T13:35:43.573Z,10.33
2017-10-11T13:38:11.009Z,13.13
2017-10-11T13:40:38.488Z,8.37
2017-10-11T13:43:05.934Z,7.87
2017-10-11T13:45:33.405Z,9.60
2017-10-11T13:48:02.014Z,8.77
2017-10-11T13:50:29.466Z,7.53
2017-10-11T13:52:57.063Z,10.57
2017-10-11T13:55:24.584Z,6.30
2017-10-11T13:57:52.041Z,6.20
2017-10-11T14:00:19.480Z,9.77
2017-10-11T14:02:47.043Z,5.80
2017-10-11T14:05:14.538Z,11.97
2017-10-11T14:07:42.010Z,6.20
2017-10-11T14:10:09.513Z,5.73
2017-10-11T14:12:36.994Z,6.77
2017-10-11T14:15:04.441Z,7.30
2017-10-11T14:17:32.029Z,9.67
2017-10-11T14:19:59.459Z,6.07
2017-10-11T14:22:26.872Z,10.40
2017-10-11T14:24:54.364Z,10.17
2017-10-11T14:27:21.880Z,10.50
2017-10-11T14:29:49.390Z,11.20
2017-10-11T14:32:17.335Z,10.07
2017-10-11T14:34:44.804Z,14.63
2017-10-11T14:37:12.275Z,8.43
2017-10-11T14:39:39.899Z,9.23
2017-10-11T14:42:07.323Z,10.43
2017-10-11T14:44:34.741Z,6.63
2017-10-11T14:47:02.225Z,8.00
2017-10-11T14:49:29.633Z,8.20
2017-10-11T14:51:57.055Z,10.73
2017-10-11T14:54:25.495Z,9.87
2017-10-11T14:56:52.929Z,6.07
2017-10-11T14:59:20.329Z,8.20
2017-10-11T15:01:48.252Z,5.93
2017-10-11T15:04:15.662Z,5.60
2017-10-11T15:06:43.120Z,4.53
2017-10-11T15:09:10.933Z,11.53
2017-10-11T15:11:38.356Z,11.30
2017-10-11T15:14:05.777Z,7.80
2017-10-11T15:16:33.339Z,4.87
2017-10-11T15:19:00.764Z,3.10
2017-10-11T15:21:28.203Z,6.00
2017-10-11T15:23:56.075Z,5.83
2017-10-11T15:26:23.513Z,5.87
2017-10-11T15:28:50.925Z,8.20
2017-10-11T15:31:18.397Z,4.87
2017-10-11T15:33:45.838Z,5.63
2017-10-11T15:36:13.275Z,5.70
2017-10-11T15:38:41.125Z,4.60
2017-10-11T15:41:08.527Z,3.20
2017-10-11T15:43:35.950Z,6.93
2017-10-11T15:46:04.354Z,3.40
2017-10-11T15:48:31.843Z,4.07
2017-10-11T15:50:59.322Z,6.50
2017-10-11T15:53:26.884Z,4.90
2017-10-11T15:55:54.377Z,4.00
2017-10-11T15:58:21.806Z,2.87
2017-10-11T16:00:49.656Z,6.78
2017-10-11T16:03:17.227Z,4.57
2017-10-11T16:05:44.711Z,2.70
2017-10-11T16:08:12.386Z,7.60
2017-10-11T16:10:39.829Z,4.97
2017-10-11T16:13:07.254Z,7.90
2017-10-11T16:15:35.020Z,2.30
2017-10-11T16:18:02.426Z,4.40
2017-10-11T16:20:29.864Z,4.53
2017-10-11T16:22:57.463Z,2.73
2017-10-11T16:25:24.868Z,2.80
2017-10-11T16:27:52.292Z,4.87
2017-10-11T16:30:20.146Z,2.20
2017-10-11T16:32:47.589Z,4.80
2017-10-11T16:35:15.046Z,4.20
2017-10-11T16:37:42.535Z,2.33
2017-10-11T16:40:09.974Z,4.07
2017-10-11T16:42:37.466Z,8.37
2017-10-11T16:45:05.199Z,3.70
2017-10-11T16:47:32.612Z,3.87
2017-10-11T16:50:00.034Z,4.47
2017-10-11T16:52:27.949Z,2.90
2017-10-11T16:54:55.364Z,3.60
2017-10-11T16:57:22.788Z,2.97
2017-10-11T16:59:50.352Z,9.90
2017-10-11T17:02:17.775Z,4.07
2017-10-11T17:04:45.183Z,5.83
2017-10-11T17:07:13.056Z,2.80
2017-10-11T17:09:40.492Z,4.80
2017-10-11T17:12:07.986Z,4.10
2017-10-11T17:14:35.486Z,7.77
2017-10-11T17:17:02.908Z,4.23
2017-10-11T17:19:30.382Z,4.10
2017-10-11T17:21:57.944Z,3.30
2017-10-11T17:24:25.373Z,4.73
2017-10-11T17:26:52.783Z,3.40
2017-10-11T17:29:20.238Z,5.83
2017-10-11T17:31:47.723Z,6.00
2017-10-11T17:34:15.119Z,3.53
2017-10-11T17:36:42.580Z,7.00
2017-10-11T17:39:09.993Z,9.03
2017-10-11T17:41:37.448Z,4.37
2017-10-11T17:44:05.252Z,2.10
2017-10-11T17:46:32.669Z,4.63
2017-10-11T17:49:00.078Z,1.80
2017-10-11T17:51:27.548Z,3.20
2017-10-11T17:53:54.968Z,2.40
2017-10-11T17:56:22.426Z,3.47
2017-10-11T17:58:50.238Z,3.27
2017-10-11T18:01:17.654Z,4.50
2017-10-11T18:03:45.068Z,2.33
2017-10-11T18:06:12.549Z,3.63
2017-10-11T18:08:39.981Z,1.87
2017-10-11T18:11:07.396Z,3.83
2017-10-11T18:13:35.299Z,3.30
2017-10-11T18:16:02.796Z,5.03
2017-10-11T18:18:30.243Z,4.60
2017-10-11T18:20:57.721Z,1.93
2017-10-11T18:23:25.148Z,3.60
2017-10-11T18:25:52.551Z,3.80
2017-10-11T18:28:20.077Z,2.40
2017-10-11T18:30:47.516Z,4.33
2017-10-11T18:33:14.948Z,4.33
2017-10-11T18:35:42.576Z,4.60
2017-10-11T18:38:10.044Z,2.05
2017-10-11T18:40:37.454Z,6.33
2017-10-11T18:43:04.961Z,4.30
2017-10-11T18:45:32.432Z,4.80
2017-10-11T18:47:59.928Z,7.37
2017-10-11T18:50:27.407Z,3.80
2017-10-11T18:52:54.843Z,3.97
2017-10-11T18:55:22.248Z,2.83
2017-10-11T18:57:50.023Z,5.40
2017-10-11T19:00:17.452Z,4.70
2017-10-11T19:02:44.864Z,3.03
2017-10-11T19:05:12.692Z,4.03
2017-10-11T19:07:40.120Z,4.20
2017-10-11T19:10:07.538Z,3.40
2017-10-11T19:12:35.369Z,2.30
2017-10-11T19:15:02.874Z,3.73
2017-10-11T19:17:30.281Z,2.90
2017-10-11T19:19:57.765Z,3.93
2017-10-11T19:22:25.219Z,3.30
2017-10-11T19:24:52.644Z,2.83
2017-10-11T19:27:20.132Z,2.57
2017-10-11T19:29:47.590Z,1.80
2017-10-11T19:32:15.004Z,3.97
2017-10-11T19:34:42.558Z,3.33
2017-10-11T19:37:09.996Z,3.73
2017-10-11T19:39:37.471Z,2.77
2017-10-11T19:42:06.997Z,2.15
2017-10-11T19:44:34.443Z,2.80
2017-10-11T19:47:01.848Z,2.13
2017-10-11T19:49:29.330Z,2.57
2017-10-11T19:51:56.762Z,3.43
2017-10-11T19:54:24.216Z,1.90
2017-10-11T19:56:51.699Z,5.33
2017-10-11T19:59:19.142Z,3.53
2017-10-11T20:01:46.536Z,2.10
2017-10-11T20:04:14.098Z,2.80
2017-10-11T20:06:41.553Z,2.67
2017-10-11T20:09:08.981Z,1.60
2017-10-11T20:11:36.435Z,4.80
2017-10-11T20:14:03.883Z,1.90
2017-10-11T20:16:31.307Z,3.53
2017-10-11T20:18:59.177Z,3.20
2017-10-11T20:21:26.586Z,2.42
2017-10-11T20:23:54.083Z,4.07
2017-10-11T20:26:21.569Z,3.00
2017-10-11T20:28:49.090Z,2.00
2017-10-11T20:31:16.523Z,1.60
2017-10-11T20:33:43.994Z,2.20
2017-10-11T20:36:11.415Z,4.83
2017-10-11T20:38:38.906Z,2.60
2017-10-11T20:41:07.380Z,1.37
2017-10-11T20:43:34.820Z,1.73
2017-10-11T20:46:02.230Z,1.63
2017-10-11T20:48:29.718Z,5.40
2017-10-11T20:50:57.148Z,1.40
2017-10-11T20:53:24.548Z,1.73
2017-10-11T20:55:52.690Z,1.30
2017-10-11T20:58:20.115Z,2.33
2017-10-11T21:00:47.560Z,1.83
2017-10-11T21:03:15.087Z,1.40
2017-10-11T21:05:42.574Z,2.63
2017-10-11T21:08:10.030Z,3.40
2017-10-11T21:10:37.810Z,2.28
2017-10-11T21:13:05.258Z,6.63
2017-10-11T21:15:32.944Z,1.60
2017-10-11T21:18:00.669Z,1.43
2017-10-11T21:20:28.427Z,1.80
2017-10-11T21:22:55.831Z,2.80
2017-10-11T21:25:23.659Z,2.47
2017-10-11T21:27:51.112Z,1.77
2017-10-11T21:30:18.528Z,1.63
2017-10-11T21:32:46.012Z,1.50
2017-10-11T21:35:13.464Z,2.73
2017-10-11T21:37:40.886Z,2.27
2017-10-11T21:40:08.392Z,1.57
2017-10-11T21:42:35.932Z,4.03
2017-10-11T21:45:03.360Z,2.30
2017-10-11T21:47:30.815Z,1.77
2017-10-11T21:49:58.240Z,3.50
2017-10-11T21:52:25.674Z,1.97
2017-10-11T21:54:53.248Z,1.50
2017-10-11T21:57:20.680Z,1.40
2017-10-11T21:59:48.097Z,2.10
2017-10-11T22:02:15.935Z,1.40
2017-10-11T22:04:43.345Z,1.60
2017-10-11T22:07:10.771Z,3.67
2017-10-11T22:09:38.236Z,1.60
2017-10-11T22:12:05.648Z,1.50
2017-10-11T22:14:33.293Z,1.97
2017-10-11T22:17:00.772Z,1.83
2017-10-11T22:19:28.176Z,2.50
2017-10-11T22:21:55.589Z,1.60
2017-10-11T22:24:23.025Z,3.00
2017-10-11T22:26:50.457Z,1.67
2017-10-11T22:29:18.020Z,1.87
2017-10-11T22:31:45.457Z,1.50
2017-10-11T22:34:12.875Z,1.57
2017-10-11T22:36:40.298Z,1.33
2017-10-11T22:39:08.179Z,1.40
2017-10-11T22:41:35.590Z,2.83
2017-10-11T22:44:03.023Z,1.40
2017-10-11T22:46:30.661Z,1.80
2017-10-11T22:48:58.079Z,1.90
2017-10-11T22:51:25.510Z,1.50
2017-10-11T22:53:52.946Z,1.50
2017-10-11T22:56:20.412Z,1.20
2017-10-11T22:58:47.832Z,2.57
2017-10-11T23:01:15.663Z,1.47
2017-10-11T23:03:43.082Z,1.87
2017-10-11T23:06:10.499Z,2.30
2017-10-11T23:08:38.632Z,1.20
2017-10-11T23:11:06.039Z,1.40
2017-10-11T23:13:33.512Z,1.70
2017-10-11T23:16:01.868Z,1.50
2017-10-11T23:18:29.324Z,2.03
2017-10-11T23:20:56.743Z,1.20
2017-10-11T23:23:24.199Z,1.30
2017-10-11T23:25:51.616Z,1.80
2017-10-11T23:28:19.042Z,1.30
2017-10-11T23:30:46.824Z,1.60
2017-10-11T23:33:14.237Z,2.20
2017-10-11T23:35:41.652Z,1.70
2017-10-11T23:38:09.131Z,4.30
2017-10-11T23:40:36.535Z,2.30
2017-10-11T23:43:03.956Z,1.40
2017-10-11T23:45:31.403Z,1.33
2017-10-11T23:47:58.820Z,1.53
2017-10-11T23:50:26.246Z,1.30
2017-10-11T23:52:53.801Z,1.40
2017-10-11T23:55:21.203Z,1.50
2017-10-11T23:57:48.619Z,1.50
